createdAt,value
2019-02-15T00:00:48.633Z,4.80
2019-02-15T00:03:15.956Z,4.80
2019-02-15T00:05:43.326Z,4.80
2019-02-15T00:08:10.533Z,4.80
2019-02-15T00:10:37.886Z,4.80
2019-02-15T00:13:13.057Z,4.80
2019-02-15T00:15:34.311Z,4.80
2019-02-15T00:18:23.956Z,4.90
2019-02-15T00:21:05.463Z,4.90
2019-02-15T00:23:32.795Z,4.90
2019-02-15T00:26:00.220Z,4.90
2019-02-15T00:28:27.553Z,4.90
2019-02-15T00:30:54.868Z,4.90
2019-02-15T00:33:22.201Z,4.90
2019-02-15T00:35:49.583Z,4.90
2019-02-15T00:38:16.945Z,4.90
2019-02-15T00:40:44.284Z,4.90
2019-02-15T00:43:11.608Z,4.90
2019-02-15T00:45:47.439Z,4.90
2019-02-15T00:48:17.251Z,4.90
2019-02-15T00:50:53.742Z,4.90
2019-02-15T00:53:40.757Z,4.90
2019-02-15T00:56:30.328Z,4.90
2019-02-15T00:59:29.529Z,4.90
2019-02-15T01:02:16.476Z,4.90
2019-02-15T01:05:03.203Z,4.90
2019-02-15T01:07:58.918Z,4.90
2019-02-15T01:10:35.194Z,4.90
2019-02-15T01:13:11.211Z,4.90
2019-02-15T01:15:38.450Z,4.90
2019-02-15T01:18:05.772Z,4.90
2019-02-15T01:20:33.113Z,4.90
2019-02-15T01:23:00.342Z,5.00
2019-02-15T01:25:30.868Z,4.90
2019-02-15T01:28:06.718Z,4.90
2019-02-15T01:30:56.307Z,5.00
2019-02-15T01:33:46.396Z,5.00
2019-02-15T01:36:20.508Z,4.90
2019-02-15T01:39:03.941Z,4.90
2019-02-15T01:41:37.945Z,4.90
2019-02-15T01:44:10.938Z,4.80
2019-02-15T01:46:54.973Z,4.70
2019-02-15T01:49:22.322Z,4.70
2019-02-15T01:51:49.515Z,4.60
2019-02-15T01:54:16.751Z,4.60
2019-02-15T01:56:43.970Z,4.70
2019-02-15T01:59:11.218Z,4.60
2019-02-15T02:01:38.618Z,4.60
2019-02-15T02:04:05.854Z,4.60
2019-02-15T02:06:33.133Z,4.60
2019-02-15T02:09:00.252Z,4.60
2019-02-15T02:11:27.655Z,4.60
2019-02-15T02:13:54.992Z,4.60
2019-02-15T02:16:22.215Z,4.60
2019-02-15T02:18:49.586Z,4.50
2019-02-15T02:21:16.795Z,4.60
2019-02-15T02:23:44.115Z,4.60
2019-02-15T02:26:11.379Z,4.60
2019-02-15T02:28:38.691Z,4.60
2019-02-15T02:31:05.942Z,4.60
2019-02-15T02:33:33.282Z,4.60
2019-02-15T02:36:00.606Z,4.60
2019-02-15T02:38:27.977Z,4.50
2019-02-15T02:40:55.314Z,4.50
2019-02-15T02:43:22.735Z,4.50
2019-02-15T02:45:49.938Z,4.50
2019-02-15T02:48:17.235Z,4.50
2019-02-15T02:50:44.384Z,4.50
2019-02-15T02:53:11.592Z,4.40
2019-02-15T02:55:39.084Z,4.40
2019-02-15T02:58:06.295Z,4.40
2019-02-15T03:00:34.012Z,4.40
2019-02-15T03:03:01.334Z,4.40
2019-02-15T03:05:28.740Z,4.40
2019-02-15T03:07:55.729Z,4.40
2019-02-15T03:10:22.985Z,4.30
2019-02-15T03:12:50.341Z,4.30
2019-02-15T03:15:17.696Z,4.30
2019-02-15T03:17:45.036Z,4.30
2019-02-15T03:20:12.375Z,4.30
2019-02-15T03:22:39.518Z,4.30
2019-02-15T03:25:06.902Z,4.30
2019-02-15T03:27:34.261Z,4.30
2019-02-15T03:30:01.637Z,4.30
2019-02-15T03:32:28.987Z,4.30
2019-02-15T03:34:56.321Z,4.30
2019-02-15T03:37:45.877Z,4.30
2019-02-15T03:40:18.190Z,4.20
2019-02-15T03:42:45.482Z,4.20
2019-02-15T03:45:14.846Z,4.20
2019-02-15T03:47:42.183Z,4.20
2019-02-15T03:50:09.432Z,4.20
2019-02-15T03:52:36.644Z,4.20
2019-02-15T03:55:04.381Z,4.20
2019-02-15T03:57:31.686Z,4.20
2019-02-15T03:59:59.024Z,4.10
2019-02-15T04:02:26.268Z,4.20
2019-02-15T04:04:53.720Z,4.10
2019-02-15T04:07:21.072Z,4.10
2019-02-15T04:09:48.292Z,4.20
2019-02-15T04:12:15.624Z,4.10
2019-02-15T04:14:43.139Z,4.10
2019-02-15T04:17:10.488Z,4.10
2019-02-15T04:19:37.709Z,4.10
2019-02-15T04:22:04.952Z,4.10
2019-02-15T04:24:32.295Z,4.10
2019-02-15T04:26:59.811Z,4.10
2019-02-15T04:29:26.961Z,4.10
2019-02-15T04:31:54.729Z,4.10
2019-02-15T04:34:22.138Z,4.10
2019-02-15T04:36:49.457Z,4.10
2019-02-15T04:39:16.824Z,4.10
2019-02-15T04:41:44.165Z,4.10
2019-02-15T04:44:11.285Z,4.10
2019-02-15T04:46:38.554Z,4.00
2019-02-15T04:49:05.855Z,4.00
2019-02-15T04:51:33.224Z,4.00
2019-02-15T04:54:00.433Z,3.90
2019-02-15T04:56:27.822Z,3.90
2019-02-15T04:58:55.138Z,3.90
2019-02-15T05:01:22.487Z,3.90
2019-02-15T05:03:49.808Z,3.90
2019-02-15T05:06:17.245Z,3.90
2019-02-15T05:08:44.581Z,3.90
2019-02-15T05:11:11.922Z,3.90
2019-02-15T05:13:39.168Z,3.90
2019-02-15T05:16:06.519Z,3.90
2019-02-15T05:18:33.835Z,3.80
2019-02-15T05:21:01.103Z,3.80
2019-02-15T05:23:28.534Z,3.80
2019-02-15T05:25:55.890Z,3.80
2019-02-15T05:28:23.078Z,3.80
2019-02-15T05:30:52.154Z,3.80
2019-02-15T05:33:19.516Z,3.80
2019-02-15T05:35:46.835Z,3.80
2019-02-15T05:38:13.971Z,3.80
2019-02-15T05:40:41.292Z,3.80
2019-02-15T05:43:08.563Z,3.70
2019-02-15T05:45:36.646Z,3.70
2019-02-15T05:48:04.162Z,3.70
2019-02-15T05:50:31.511Z,3.70
2019-02-15T05:52:58.915Z,3.70
2019-02-15T05:55:26.126Z,3.70
2019-02-15T05:57:53.472Z,3.70
2019-02-15T06:00:20.781Z,3.80
2019-02-15T06:02:48.260Z,3.80
2019-02-15T06:05:15.568Z,3.80
2019-02-15T06:07:42.892Z,3.80
2019-02-15T06:10:10.248Z,3.90
2019-02-15T06:12:37.589Z,3.90
2019-02-15T06:15:14.803Z,3.80
2019-02-15T06:17:34.230Z,3.80
2019-02-15T06:20:01.595Z,3.80
2019-02-15T06:22:28.861Z,3.80
2019-02-15T06:24:56.200Z,3.80
2019-02-15T06:27:23.419Z,3.80
2019-02-15T06:29:50.689Z,3.70
2019-02-15T06:32:17.802Z,3.70
2019-02-15T06:34:45.025Z,3.70
2019-02-15T06:37:12.278Z,3.70
2019-02-15T06:39:39.543Z,3.70
2019-02-15T06:42:06.850Z,3.70
2019-02-15T06:44:34.175Z,3.70
2019-02-15T06:47:01.463Z,3.70
2019-02-15T06:49:28.773Z,3.80
2019-02-15T06:51:56.127Z,3.80
2019-02-15T06:54:23.444Z,3.70
2019-02-15T06:56:50.697Z,3.70
2019-02-15T06:59:30.112Z,3.70
2019-02-15T07:02:02.736Z,3.70
2019-02-15T07:04:40.512Z,3.60
2019-02-15T07:07:07.855Z,3.70
2019-02-15T07:09:35.173Z,3.70
2019-02-15T07:12:02.518Z,3.70
2019-02-15T07:14:29.827Z,3.70
2019-02-15T07:16:57.158Z,3.80
2019-02-15T07:19:24.482Z,3.80
2019-02-15T07:21:51.822Z,3.80
2019-02-15T07:24:19.039Z,3.80
2019-02-15T07:26:46.387Z,3.80
2019-02-15T07:29:13.731Z,3.80
2019-02-15T07:31:40.989Z,3.90
2019-02-15T07:34:08.234Z,3.90
2019-02-15T07:36:35.575Z,3.80
2019-02-15T07:39:04.624Z,3.80
2019-02-15T07:41:31.939Z,3.80
2019-02-15T07:43:59.184Z,3.80
2019-02-15T07:46:26.394Z,3.80
2019-02-15T07:48:53.947Z,3.80
2019-02-15T07:51:21.329Z,3.80
2019-02-15T07:53:48.639Z,3.80
2019-02-15T07:56:15.964Z,3.80
2019-02-15T07:58:43.115Z,3.70
2019-02-15T08:01:10.570Z,3.70
2019-02-15T08:03:37.766Z,3.70
2019-02-15T08:06:05.111Z,3.70
2019-02-15T08:08:32.333Z,3.70
2019-02-15T08:10:59.566Z,3.60
2019-02-15T08:13:26.928Z,3.70
2019-02-15T08:15:54.248Z,3.70
2019-02-15T08:18:21.619Z,3.70
2019-02-15T08:20:48.937Z,3.70
2019-02-15T08:23:16.262Z,3.80
2019-02-15T08:25:43.621Z,3.80
2019-02-15T08:28:10.937Z,3.80
2019-02-15T08:30:38.411Z,3.80
2019-02-15T08:33:05.632Z,3.80
2019-02-15T08:35:32.960Z,3.80
2019-02-15T08:38:00.281Z,3.80
2019-02-15T08:40:27.619Z,3.80
2019-02-15T08:42:56.001Z,3.90
2019-02-15T08:45:23.437Z,3.90
2019-02-15T08:47:50.541Z,3.90
2019-02-15T08:50:17.965Z,3.90
2019-02-15T08:52:45.310Z,3.90
2019-02-15T08:55:12.640Z,3.90
2019-02-15T08:57:40.003Z,4.00
2019-02-15T09:00:08.556Z,4.00
2019-02-15T09:02:35.901Z,4.10
2019-02-15T09:05:03.320Z,4.10
2019-02-15T09:07:30.703Z,4.10
2019-02-15T09:09:58.019Z,4.10
2019-02-15T09:12:25.235Z,4.20
2019-02-15T09:14:52.604Z,4.20
2019-02-15T09:17:19.958Z,4.30
2019-02-15T09:19:47.382Z,4.30
2019-02-15T09:22:14.715Z,4.30
2019-02-15T09:24:42.000Z,4.20
2019-02-15T09:27:34.879Z,4.30
2019-02-15T09:30:02.256Z,4.40
2019-02-15T09:32:29.569Z,4.40
2019-02-15T09:34:56.917Z,4.40
2019-02-15T09:37:24.139Z,4.40
2019-02-15T09:39:51.381Z,4.50
2019-02-15T09:42:18.738Z,4.50
2019-02-15T09:44:46.000Z,4.60
2019-02-15T09:47:13.311Z,4.60
2019-02-15T09:49:40.573Z,4.70
2019-02-15T09:52:07.830Z,4.80
2019-02-15T09:54:35.088Z,4.90
2019-02-15T09:57:02.424Z,4.90
2019-02-15T09:59:29.851Z,4.90
2019-02-15T10:01:57.177Z,5.00
2019-02-15T10:04:24.545Z,5.10
2019-02-15T10:06:52.015Z,5.20
2019-02-15T10:09:19.219Z,5.30
2019-02-15T10:11:46.555Z,5.40
2019-02-15T10:14:13.825Z,5.60
2019-02-15T10:16:41.183Z,5.70
2019-02-15T10:19:08.495Z,5.70
2019-02-15T10:21:35.781Z,5.70
2019-02-15T10:24:03.029Z,5.90
2019-02-15T10:26:30.351Z,6.00
2019-02-15T10:28:57.550Z,6.10
2019-02-15T10:31:25.646Z,6.40
2019-02-15T10:33:52.835Z,6.60
2019-02-15T10:36:20.091Z,6.60
2019-02-15T10:38:47.380Z,6.50
2019-02-15T10:41:14.733Z,6.60
2019-02-15T10:43:42.025Z,6.60
2019-02-15T10:46:09.371Z,6.50
2019-02-15T10:48:36.632Z,6.50
2019-02-15T10:51:03.964Z,6.60
2019-02-15T10:53:31.208Z,6.60
2019-02-15T10:55:58.444Z,6.60
2019-02-15T10:58:26.462Z,6.80
2019-02-15T11:00:53.895Z,6.70
2019-02-15T11:03:21.151Z,6.70
2019-02-15T11:05:48.350Z,6.80
2019-02-15T11:08:15.647Z,6.80
2019-02-15T11:10:43.001Z,6.60
2019-02-15T11:13:10.390Z,6.80
2019-02-15T11:15:37.729Z,6.70
2019-02-15T11:18:05.054Z,6.70
2019-02-15T11:20:32.363Z,6.80
2019-02-15T11:22:59.681Z,6.80
2019-02-15T11:25:26.817Z,6.80
2019-02-15T11:27:54.073Z,6.70
2019-02-15T11:30:21.362Z,6.60
2019-02-15T11:32:48.691Z,6.50
2019-02-15T11:35:15.974Z,6.30
2019-02-15T11:37:43.277Z,6.10
2019-02-15T11:40:11.313Z,6.00
2019-02-15T11:42:38.671Z,6.10
2019-02-15T11:45:06.513Z,6.00
2019-02-15T11:47:33.847Z,5.90
2019-02-15T11:50:01.063Z,5.90
2019-02-15T11:52:28.336Z,5.90
2019-02-15T11:54:55.569Z,5.80
2019-02-15T11:57:22.905Z,5.80
2019-02-15T11:59:50.236Z,5.70
2019-02-15T12:02:17.652Z,5.80
2019-02-15T12:04:44.982Z,5.90
2019-02-15T12:07:12.372Z,5.80
2019-02-15T12:09:39.737Z,5.60
2019-02-15T12:12:10.668Z,5.50
2019-02-15T12:14:36.075Z,5.40
2019-02-15T12:17:05.627Z,5.40
2019-02-15T12:19:32.570Z,5.30
2019-02-15T12:21:59.796Z,5.30
2019-02-15T12:24:27.023Z,5.30
2019-02-15T12:26:54.347Z,5.40
2019-02-15T12:29:21.647Z,5.40
2019-02-15T12:31:48.885Z,5.40
2019-02-15T12:34:16.283Z,5.40
2019-02-15T12:36:43.394Z,5.40
2019-02-15T12:39:12.849Z,5.50
2019-02-15T12:41:39.860Z,5.60
2019-02-15T12:44:07.164Z,5.70
2019-02-15T12:46:34.483Z,5.80
2019-02-15T12:49:01.803Z,5.80
2019-02-15T12:51:29.264Z,5.70
2019-02-15T12:53:56.557Z,5.70
2019-02-15T12:56:23.788Z,5.70
2019-02-15T12:58:50.891Z,5.60
2019-02-15T13:01:18.130Z,5.60
2019-02-15T13:03:45.467Z,5.70
2019-02-15T13:06:12.715Z,5.70
2019-02-15T13:08:39.807Z,5.70
2019-02-15T13:11:07.014Z,5.70
2019-02-15T13:13:34.352Z,5.70
2019-02-15T13:16:01.587Z,5.60
2019-02-15T13:18:28.926Z,5.60
2019-02-15T13:20:56.277Z,5.70
2019-02-15T13:23:23.620Z,5.60
2019-02-15T13:25:50.873Z,5.50
2019-02-15T13:28:18.198Z,5.50
2019-02-15T13:30:45.556Z,5.50
2019-02-15T13:33:12.992Z,5.50
2019-02-15T13:35:40.297Z,5.40
2019-02-15T13:38:07.592Z,5.40
2019-02-15T13:40:34.920Z,5.40
2019-02-15T13:43:02.252Z,5.40
2019-02-15T13:45:29.655Z,5.40
2019-02-15T13:47:57.247Z,5.40
2019-02-15T13:50:24.483Z,5.30
2019-02-15T13:52:51.793Z,5.20
2019-02-15T13:55:19.044Z,5.20
2019-02-15T13:57:46.371Z,5.20
2019-02-15T14:00:13.703Z,5.10
2019-02-15T14:02:41.074Z,5.10
2019-02-15T14:05:09.676Z,5.00
2019-02-15T14:07:37.192Z,5.00
2019-02-15T14:10:05.873Z,5.00
2019-02-15T14:12:33.219Z,5.00
2019-02-15T14:15:00.449Z,4.90
2019-02-15T14:17:27.569Z,5.00
2019-02-15T14:19:54.908Z,5.00
2019-02-15T14:22:22.204Z,5.00
2019-02-15T14:24:49.464Z,5.00
2019-02-15T14:27:16.782Z,5.00
2019-02-15T14:29:44.020Z,5.00
2019-02-15T14:32:11.346Z,4.90
2019-02-15T14:34:38.604Z,4.80
2019-02-15T14:37:05.979Z,4.70
2019-02-15T14:39:33.196Z,4.60
2019-02-15T14:42:00.522Z,4.50
2019-02-15T14:44:27.902Z,4.40
2019-02-15T14:46:55.100Z,4.40
2019-02-15T14:49:22.467Z,4.40
2019-02-15T14:51:49.721Z,4.40
2019-02-15T14:54:17.060Z,4.30
2019-02-15T14:56:44.375Z,4.30
2019-02-15T14:59:11.690Z,4.20
2019-02-15T15:01:38.993Z,4.10
2019-02-15T15:04:06.335Z,4.00
2019-02-15T15:06:33.656Z,3.90
2019-02-15T15:09:00.968Z,3.90
2019-02-15T15:11:28.275Z,4.00
2019-02-15T15:13:55.483Z,3.90
2019-02-15T15:16:22.809Z,3.80
2019-02-15T15:18:50.090Z,3.80
2019-02-15T15:21:17.339Z,3.70
2019-02-15T15:23:44.548Z,3.70
2019-02-15T15:26:12.337Z,3.70
2019-02-15T15:28:39.771Z,3.60
2019-02-15T15:31:07.128Z,3.60
2019-02-15T15:33:34.433Z,3.60
2019-02-15T15:36:01.742Z,3.50
2019-02-15T15:38:29.035Z,3.30
2019-02-15T15:40:56.254Z,3.10
2019-02-15T15:43:23.587Z,3.10
2019-02-15T15:45:50.820Z,3.00
2019-02-15T15:48:22.634Z,3.00
2019-02-15T15:50:47.154Z,3.00
2019-02-15T15:53:14.387Z,2.90
2019-02-15T15:55:41.744Z,3.00
2019-02-15T15:58:09.064Z,3.10
2019-02-15T16:00:39.045Z,3.10
2019-02-15T16:03:05.494Z,3.10
2019-02-15T16:05:32.848Z,3.00
2019-02-15T16:08:00.061Z,2.90
2019-02-15T16:10:27.375Z,2.70
2019-02-15T16:12:54.726Z,2.60
2019-02-15T16:15:21.951Z,2.60
2019-02-15T16:17:49.184Z,2.50
2019-02-15T16:20:16.472Z,2.40
2019-02-15T16:22:43.716Z,2.10
2019-02-15T16:25:11.007Z,1.90
2019-02-15T16:27:38.256Z,1.80
2019-02-15T16:30:07.496Z,1.60
2019-02-15T16:32:34.644Z,1.50
2019-02-15T16:35:02.002Z,1.30
2019-02-15T16:37:29.309Z,1.20
2019-02-15T16:39:56.643Z,1.10
2019-02-15T16:42:24.008Z,0.80
2019-02-15T16:44:51.325Z,0.60
2019-02-15T16:47:18.627Z,0.40
2019-02-15T16:49:46.071Z,0.30
2019-02-15T16:52:13.395Z,0.20
2019-02-15T16:54:40.724Z,0.10
2019-02-15T16:57:07.995Z,0.10
2019-02-15T16:59:35.319Z,0.10
2019-02-15T17:02:02.835Z,0.10
2019-02-15T17:04:30.157Z,0.10
2019-02-15T17:06:57.368Z,0.00
2019-02-15T17:09:24.595Z,-0.10
2019-02-15T17:11:51.832Z,-0.10
2019-02-15T17:14:19.040Z,-0.20
2019-02-15T17:16:46.372Z,-0.30
2019-02-15T17:19:13.680Z,-0.30
2019-02-15T17:21:41.001Z,-0.30
2019-02-15T17:24:08.318Z,-0.40
2019-02-15T17:26:35.551Z,-0.40
2019-02-15T17:29:02.783Z,-0.40
2019-02-15T17:31:30.048Z,-0.50
2019-02-15T17:33:57.401Z,-0.70
2019-02-15T17:36:24.669Z,-0.80
2019-02-15T17:38:51.957Z,-0.90
2019-02-15T17:41:19.299Z,-0.90
2019-02-15T17:43:46.522Z,-1.00
2019-02-15T17:46:13.726Z,-1.10
2019-02-15T17:48:41.056Z,-1.20
2019-02-15T17:51:08.369Z,-1.20
2019-02-15T17:53:35.694Z,-1.30
2019-02-15T17:56:02.916Z,-1.30
2019-02-15T17:58:30.308Z,-1.20
2019-02-15T18:00:57.746Z,-1.20
2019-02-15T18:03:25.075Z,-1.20
2019-02-15T18:05:52.460Z,-1.20
2019-02-15T18:08:19.590Z,-1.30
2019-02-15T18:10:46.835Z,-1.30
2019-02-15T18:13:14.038Z,-1.40
2019-02-15T18:15:41.372Z,-1.60
2019-02-15T18:18:08.737Z,-1.60
2019-02-15T18:20:36.040Z,-1.80
2019-02-15T18:23:03.411Z,-1.80
2019-02-15T18:25:30.849Z,-1.80
2019-02-15T18:27:58.208Z,-1.80
2019-02-15T18:30:25.529Z,-1.70
2019-02-15T18:32:52.882Z,-1.50
2019-02-15T18:35:20.120Z,-1.60
2019-02-15T18:37:47.479Z,-1.70
2019-02-15T18:40:14.781Z,-1.80
2019-02-15T18:42:42.148Z,-1.90
2019-02-15T18:45:10.495Z,-2.10
2019-02-15T18:47:37.839Z,-2.20
2019-02-15T18:50:05.124Z,-2.10
2019-02-15T18:52:32.458Z,-2.10
2019-02-15T18:55:00.155Z,-2.20
2019-02-15T18:57:27.673Z,-2.20
2019-02-15T18:59:54.784Z,-2.20
2019-02-15T19:02:22.035Z,-2.20
2019-02-15T19:04:49.271Z,-2.20
2019-02-15T19:07:16.480Z,-2.20
2019-02-15T19:09:43.709Z,-2.30
2019-02-15T19:12:11.044Z,-2.40
2019-02-15T19:14:38.274Z,-2.40
2019-02-15T19:17:05.690Z,-2.40
2019-02-15T19:19:32.920Z,-2.40
2019-02-15T19:22:00.259Z,-2.50
2019-02-15T19:24:27.579Z,-2.40
2019-02-15T19:26:54.812Z,-2.20
2019-02-15T19:29:22.037Z,-2.20
2019-02-15T19:31:49.416Z,-2.30
2019-02-15T19:34:16.895Z,-2.50
2019-02-15T19:36:44.413Z,-2.60
2019-02-15T19:39:11.746Z,-2.80
2019-02-15T19:41:38.966Z,-2.80
2019-02-15T19:44:05.975Z,-2.70
2019-02-15T19:46:33.332Z,-2.60
2019-02-15T19:49:00.699Z,-2.70
2019-02-15T19:51:27.833Z,-2.60
2019-02-15T19:53:55.201Z,-2.70
2019-02-15T19:56:22.557Z,-2.70
2019-02-15T19:58:49.872Z,-2.70
2019-02-15T20:01:17.264Z,-2.70
2019-02-15T20:03:44.608Z,-2.70
2019-02-15T20:06:12.152Z,-2.80
2019-02-15T20:08:39.486Z,-2.80
2019-02-15T20:11:06.821Z,-2.90
2019-02-15T20:13:34.077Z,-3.00
2019-02-15T20:16:01.488Z,-3.00
2019-02-15T20:18:28.711Z,-3.00
2019-02-15T20:20:56.141Z,-2.90
2019-02-15T20:23:23.534Z,-2.90
2019-02-15T20:25:51.141Z,-2.90
2019-02-15T20:28:18.491Z,-3.00
2019-02-15T20:30:45.784Z,-3.00
2019-02-15T20:33:13.439Z,-3.00
2019-02-15T20:35:40.783Z,-3.00
2019-02-15T20:38:09.135Z,-3.00
2019-02-15T20:40:36.751Z,-2.90
2019-02-15T20:43:04.251Z,-2.90
2019-02-15T20:45:32.639Z,-3.00
2019-02-15T20:47:59.947Z,-3.00
2019-02-15T20:50:27.352Z,-3.00
2019-02-15T20:52:54.604Z,-3.00
2019-02-15T20:55:21.962Z,-3.00
2019-02-15T20:57:49.585Z,-3.00
2019-02-15T21:00:21.752Z,-3.10
2019-02-15T21:02:49.362Z,-3.10
2019-02-15T21:05:16.673Z,-3.10
2019-02-15T21:07:44.044Z,-3.10
2019-02-15T21:10:11.359Z,-3.10
2019-02-15T21:12:39.603Z,-3.10
2019-02-15T21:15:07.564Z,-3.10
2019-02-15T21:17:34.958Z,-3.00
2019-02-15T21:20:07.875Z,-3.10
2019-02-15T21:22:31.783Z,-3.10
2019-02-15T21:24:59.031Z,-3.10
2019-02-15T21:27:26.341Z,-3.10
2019-02-15T21:29:53.684Z,-3.10
2019-02-15T21:32:21.206Z,-3.10
2019-02-15T21:34:48.591Z,-3.10
2019-02-15T21:37:15.813Z,-3.10
2019-02-15T21:39:43.072Z,-3.00
2019-02-15T21:42:10.432Z,-2.90
2019-02-15T21:44:37.756Z,-2.90
2019-02-15T21:47:05.110Z,-3.00
2019-02-15T21:49:32.435Z,-3.30
2019-02-15T21:51:59.768Z,-3.40
2019-02-15T21:54:26.972Z,-3.40
2019-02-15T21:56:54.244Z,-3.30
2019-02-15T21:59:21.482Z,-3.40
2019-02-15T22:01:48.807Z,-3.30
2019-02-15T22:04:16.156Z,-3.30
2019-02-15T22:06:43.375Z,-3.40
2019-02-15T22:09:10.726Z,-3.40
2019-02-15T22:11:37.830Z,-3.50
2019-02-15T22:14:05.051Z,-3.50
2019-02-15T22:16:32.444Z,-3.50
2019-02-15T22:18:59.671Z,-3.50
2019-02-15T22:21:26.776Z,-3.40
2019-02-15T22:23:53.904Z,-3.40
2019-02-15T22:26:21.142Z,-3.30
2019-02-15T22:28:48.387Z,-3.30
2019-02-15T22:31:15.583Z,-3.40
2019-02-15T22:33:42.832Z,-3.40
2019-02-15T22:36:10.101Z,-3.50
2019-02-15T22:38:37.407Z,-3.50
2019-02-15T22:41:10.978Z,-3.50
2019-02-15T22:43:38.248Z,-3.50
2019-02-15T22:46:05.556Z,-3.50
2019-02-15T22:48:32.921Z,-3.40
2019-02-15T22:51:00.247Z,-3.40
2019-02-15T22:53:27.490Z,-3.40
2019-02-15T22:55:54.623Z,-3.30
2019-02-15T22:58:21.831Z,-3.30
2019-02-15T23:00:59.792Z,-3.30
2019-02-15T23:03:27.162Z,-3.40
2019-02-15T23:05:54.839Z,-3.40
2019-02-15T23:08:22.015Z,-3.40
2019-02-15T23:10:49.523Z,-3.40
2019-02-15T23:13:16.865Z,-3.40
2019-02-15T23:15:44.163Z,-3.40
2019-02-15T23:18:11.523Z,-3.30
2019-02-15T23:20:44.896Z,-3.40
2019-02-15T23:23:07.912Z,-3.40
2019-02-15T23:25:35.116Z,-3.30
2019-02-15T23:28:02.432Z,-3.30
2019-02-15T23:30:29.576Z,-3.40
2019-02-15T23:32:56.907Z,-3.40
2019-02-15T23:35:24.165Z,-3.40
2019-02-15T23:37:51.339Z,-3.40
2019-02-15T23:40:18.663Z,-3.50
2019-02-15T23:42:45.814Z,-3.50
2019-02-15T23:45:13.027Z,-3.60
2019-02-15T23:47:40.300Z,-3.60
2019-02-15T23:50:07.724Z,-3.60
2019-02-15T23:52:35.074Z,-3.70
2019-02-15T23:55:02.409Z,-3.70
2019-02-15T23:57:29.752Z,-3.60
2019-02-15T23:59:56.971Z,-3.60
